Time;durP1;ratioP1;P1;durP2;ratioP2;P2;SDS_P1;SDS_P2;PMS_P1;PMS_P2;Temp;Humidity;BMP_temperature;BMP_pressure;BME280_temperature;BME280_humidity;BME280_pressure;Samples;Min_cycle;Max_cycle;Signal;HPM_P1;HPM_P2
2023/11/12 00:01:34;;;;;;;3.37;3.03;;;16.90;67.50;;;;;;4975031;28;20956;-78
2023/11/12 00:04:02;;;;;;;3.77;3.37;;;16.90;67.60;;;;;;4975337;28;20481;-79
2023/11/12 00:06:32;;;;;;;2.80;2.60;;;16.90;67.50;;;;;;4974820;28;20468;-77
2023/11/12 00:09:04;;;;;;;3.00;2.80;;;16.90;67.60;;;;;;4973892;28;20509;-77
2023/11/12 00:11:34;;;;;;;2.80;2.60;;;16.90;67.60;;;;;;4975087;28;20426;-78
2023/11/12 00:14:02;;;;;;;2.80;2.60;;;16.90;67.60;;;;;;4974908;28;20473;-78
2023/11/12 00:16:30;;;;;;;3.87;3.20;;;16.80;67.40;;;;;;4974628;28;20442;-76
2023/11/12 00:18:59;;;;;;;3.00;2.80;;;16.90;67.60;;;;;;4974948;28;20487;-77
2023/11/12 00:21:26;;;;;;;3.10;2.80;;;16.90;67.40;;;;;;4974188;28;20438;-78
2023/11/12 00:23:56;;;;;;;3.03;2.73;;;16.80;67.30;;;;;;4974310;28;20540;-78
2023/11/12 00:26:24;;;;;;;4.20;3.80;;;16.80;67.40;;;;;;4974548;28;20438;-78
2023/11/12 00:28:52;;;;;;;3.20;2.90;;;16.80;67.30;;;;;;4974187;28;20501;-78
2023/11/12 00:31:22;;;;;;;3.90;3.47;;;16.80;67.20;;;;;;4974473;28;20439;-78
2023/11/12 00:33:51;;;;;;;3.90;3.00;;;16.80;67.20;;;;;;4974798;28;20474;-76
2023/11/12 00:36:19;;;;;;;3.77;3.47;;;16.70;67.20;;;;;;4974899;28;20434;-77
2023/11/12 00:38:48;;;;;;;4.87;3.30;;;16.70;67.10;;;;;;4974226;28;20470;-76
2023/11/12 00:41:22;;;;;;;3.50;3.20;;;16.70;67.30;;;;;;4975076;28;20450;-78
2023/11/12 00:43:51;;;;;;;4.00;3.40;;;16.70;67.20;;;;;;4974726;28;20504;-78
2023/11/12 00:46:20;;;;;;;6.80;3.70;;;16.70;66.90;;;;;;4974762;28;20541;-77
2023/11/12 00:48:48;;;;;;;3.77;3.47;;;16.70;67.50;;;;;;4974693;28;20462;-76
2023/11/12 00:51:18;;;;;;;3.47;3.17;;;16.70;67.30;;;;;;4974431;28;20450;-78
2023/11/12 00:53:46;;;;;;;3.20;2.90;;;16.70;67.20;;;;;;4974522;28;20446;-78
2023/11/12 00:56:15;;;;;;;3.40;3.07;;;16.70;67.20;;;;;;4974849;28;20504;-77
2023/11/12 00:58:46;;;;;;;3.60;3.30;;;16.70;67.20;;;;;;4974101;28;20541;-76
2023/11/12 01:01:15;;;;;;;3.50;3.20;;;16.70;66.80;;;;;;4974084;28;20509;-77
2023/11/12 01:03:43;;;;;;;3.37;3.07;;;16.60;67.20;;;;;;4974337;28;20529;-76
2023/11/12 01:06:12;;;;;;;4.30;3.30;;;16.70;67.10;;;;;;4974415;28;20458;-76
2023/11/12 01:08:45;;;;;;;3.40;3.10;;;16.70;67.00;;;;;;4974491;28;20462;-76
2023/11/12 01:11:15;;;;;;;4.10;3.07;;;16.60;67.10;;;;;;4974133;28;20450;-76
2023/11/12 01:13:44;;;;;;;3.70;3.40;;;16.60;67.00;;;;;;4974415;28;20453;-76
2023/11/12 01:16:15;;;;;;;3.50;3.20;;;16.60;67.10;;;;;;4974167;28;20478;-78
2023/11/12 01:18:45;;;;;;;3.60;3.30;;;16.60;67.10;;;;;;4973500;28;20504;-76
2023/11/12 01:21:16;;;;;;;3.13;2.90;;;16.60;66.90;;;;;;4973548;28;20450;-78
2023/11/12 01:23:44;;;;;;;3.70;3.33;;;16.60;67.10;;;;;;4973512;28;20451;-78
2023/11/12 01:26:12;;;;;;;4.50;3.80;;;16.70;67.00;;;;;;4973655;28;20541;-77
2023/11/12 01:28:42;;;;;;;3.43;3.13;;;16.60;66.80;;;;;;4973562;28;20478;-78
2023/11/12 01:31:10;;;;;;;3.37;3.07;;;16.60;66.90;;;;;;4973938;28;20531;-77
2023/11/12 01:33:40;;;;;;;3.17;2.70;;;16.60;67.10;;;;;;4974043;28;20442;-78
2023/11/12 01:36:08;;;;;;;3.87;3.47;;;16.60;67.00;;;;;;4973466;28;20509;-77
2023/11/12 01:38:36;;;;;;;3.50;3.20;;;16.60;67.00;;;;;;4973423;28;20478;-79
2023/11/12 01:41:04;;;;;;;3.80;3.20;;;16.60;66.80;;;;;;4973457;28;20442;-76
2023/11/12 01:43:34;;;;;;;2.97;2.77;;;16.60;67.00;;;;;;4973901;28;20446;-78
2023/11/12 01:46:04;;;;;;;4.13;3.40;;;16.60;67.10;;;;;;4973829;28;20446;-77
2023/11/12 01:48:33;;;;;;;3.50;3.20;;;16.60;66.70;;;;;;4974132;28;20497;-76
2023/11/12 01:51:04;;;;;;;3.47;3.10;;;16.60;67.00;;;;;;4974100;28;20454;-78
2023/11/12 01:53:33;;;;;;;3.47;3.13;;;16.60;66.90;;;;;;4974982;28;20474;-78
2023/11/12 01:56:01;;;;;;;3.77;3.37;;;16.60;67.00;;;;;;4974774;28;20438;-78
2023/11/12 01:58:30;;;;;;;3.80;3.27;;;16.60;67.20;;;;;;4973277;28;20570;-78
2023/11/12 02:00:59;;;;;;;2.93;2.73;;;16.60;66.90;;;;;;4973289;28;20454;-78
2023/11/12 02:03:28;;;;;;;3.17;2.97;;;16.60;67.20;;;;;;4973163;28;20450;-76
2023/11/12 02:05:56;;;;;;;3.93;3.50;;;16.60;67.10;;;;;;4973268;28;20454;-76
2023/11/12 02:08:25;;;;;;;5.53;3.20;;;16.60;66.90;;;;;;4972871;28;20500;-76
2023/11/12 02:10:54;;;;;;;3.90;3.00;;;16.60;67.00;;;;;;4973336;28;20504;-77
2023/11/12 02:13:23;;;;;;;3.30;3.10;;;16.60;66.80;;;;;;4972421;28;20569;-77
2023/11/12 02:15:50;;;;;;;3.33;3.03;;;16.60;67.20;;;;;;4972937;28;20508;-77
2023/11/12 02:18:18;;;;;;;3.63;3.10;;;16.60;67.10;;;;;;4973163;28;20481;-77
2023/11/12 02:20:46;;;;;;;4.03;3.23;;;16.60;66.70;;;;;;4973195;28;20450;-77
2023/11/12 02:23:15;;;;;;;3.70;3.40;;;16.60;67.00;;;;;;4972734;28;20458;-78
2023/11/12 02:25:45;;;;;;;3.70;3.40;;;16.60;66.80;;;;;;4973212;28;20520;-78
2023/11/12 02:28:16;;;;;;;4.43;3.10;;;16.60;66.80;;;;;;4973221;28;20466;-78
2023/11/12 02:30:45;;;;;;;3.80;3.50;;;16.50;66.60;;;;;;4973871;28;20435;-78
2023/11/12 02:33:13;;;;;;;3.47;3.17;;;16.50;66.60;;;;;;4976795;28;20453;-78
2023/11/12 02:35:46;;;;;;;6.00;3.70;;;16.50;66.20;;;;;;4976567;28;20445;-79
2023/11/12 02:38:14;;;;;;;4.10;3.70;;;16.50;66.90;;;;;;4976297;28;20509;-78
2023/11/12 02:40:45;;;;;;;3.97;3.60;;;16.50;66.40;;;;;;4976438;28;20559;-78
2023/11/12 02:43:16;;;;;;;3.70;3.40;;;16.50;66.60;;;;;;4976089;28;20449;-78
2023/11/12 02:45:44;;;;;;;8.00;3.80;;;16.40;66.50;;;;;;4976221;28;20434;-78
2023/11/12 02:48:13;;;;;;;3.87;3.57;;;16.40;66.10;;;;;;4976135;28;20513;-79
2023/11/12 02:50:41;;;;;;;3.70;3.40;;;16.40;66.30;;;;;;4976066;28;20450;-79
2023/11/12 02:53:11;;;;;;;4.10;3.70;;;16.40;66.50;;;;;;4976480;28;20449;-78
2023/11/12 02:55:41;;;;;;;5.10;4.03;;;16.40;66.40;;;;;;4976574;28;20457;-79
2023/11/12 02:58:10;;;;;;;4.83;4.00;;;16.40;66.00;;;;;;4976288;28;20500;-78
2023/11/12 03:00:40;;;;;;;3.53;3.23;;;16.30;66.20;;;;;;4976200;28;20450;-78
2023/11/12 03:03:08;;;;;;;3.63;3.37;;;16.30;66.00;;;;;;4976264;28;20449;-79
2023/11/12 03:05:40;;;;;;;3.90;3.40;;;16.30;66.40;;;;;;4976493;28;20525;-78
2023/11/12 03:08:08;;;;;;;3.67;3.37;;;16.30;65.90;;;;;;4976423;28;20492;-78
2023/11/12 03:10:42;;;;;;;5.50;3.90;;;16.30;66.10;;;;;;4976089;28;20542;-78
2023/11/12 03:13:11;;;;;;;3.30;2.87;;;16.30;65.80;;;;;;4976499;28;20528;-78
2023/11/12 03:15:40;;;;;;;3.67;3.37;;;16.30;66.10;;;;;;4976329;28;20454;-78
2023/11/12 03:18:09;;;;;;;4.10;3.70;;;16.30;65.90;;;;;;4976044;28;20458;-77
2023/11/12 03:20:38;;;;;;;4.20;3.20;;;16.30;65.90;;;;;;4976428;28;20450;-78
2023/11/12 03:23:07;;;;;;;4.00;3.60;;;16.30;65.70;;;;;;4976173;28;20501;-78
2023/11/12 03:25:35;;;;;;;3.47;3.17;;;16.30;66.00;;;;;;4976129;28;20442;-79
2023/11/12 03:28:04;;;;;;;3.20;2.90;;;16.30;65.90;;;;;;4974839;28;20440;-79
2023/11/12 03:30:32;;;;;;;4.33;3.47;;;16.30;65.90;;;;;;4976851;28;20453;-77
2023/11/12 03:33:02;;;;;;;3.50;3.10;;;16.20;65.60;;;;;;4975637;28;20450;-78
2023/11/12 03:35:30;;;;;;;4.93;3.63;;;16.20;65.30;;;;;;4975619;28;20456;-77
2023/11/12 03:37:59;;;;;;;3.43;3.13;;;16.20;65.10;;;;;;4975839;28;20500;-77
2023/11/12 03:40:28;;;;;;;3.80;3.50;;;16.10;65.40;;;;;;4975524;28;20474;-77
2023/11/12 03:42:56;;;;;;;4.17;3.80;;;16.10;65.20;;;;;;4975497;28;20537;-75
2023/11/12 03:45:24;;;;;;;3.67;3.37;;;16.10;65.50;;;;;;4975194;28;20470;-77
2023/11/12 03:47:57;;;;;;;4.23;3.83;;;16.10;65.30;;;;;;4975542;28;20456;-78
2023/11/12 03:50:27;;;;;;;4.27;3.87;;;16.10;65.20;;;;;;4975151;28;20446;-78
2023/11/12 03:52:57;;;;;;;5.20;3.90;;;16.10;65.30;;;;;;4974789;28;20513;-78
2023/11/12 03:55:28;;;;;;;3.57;3.27;;;16.10;65.00;;;;;;4975822;28;20450;-78
2023/11/12 03:57:56;;;;;;;3.13;2.83;;;16.10;65.10;;;;;;4974855;28;20457;-78
2023/11/12 04:00:24;;;;;;;3.60;3.30;;;16.00;65.10;;;;;;4972675;28;20470;-78
2023/11/12 04:02:53;;;;;;;4.40;3.67;;;16.00;64.90;;;;;;4978480;28;20442;-78
2023/11/12 04:05:21;;;;;;;3.70;3.40;;;16.00;64.70;;;;;;4967725;28;20458;-75
2023/11/12 04:07:51;;;;;;;3.80;3.40;;;16.00;64.70;;;;;;4974761;28;20448;-76
2023/11/12 04:10:20;;;;;;;3.53;3.27;;;16.00;64.40;;;;;;4973295;28;20437;-76
2023/11/12 04:12:48;;;;;;;4.00;3.53;;;16.00;64.60;;;;;;4972458;28;20501;-77
2023/11/12 04:15:16;;;;;;;3.70;3.17;;;16.00;64.30;;;;;;4972605;28;20540;-77
2023/11/12 04:17:44;;;;;;;3.70;3.40;;;16.00;64.70;;;;;;4966780;28;20446;-78
2023/11/12 04:20:14;;;;;;;4.40;3.50;;;16.00;64.70;;;;;;4974620;28;20473;-78
2023/11/12 04:22:42;;;;;;;3.37;3.07;;;16.00;64.30;;;;;;4974938;28;20482;-78
2023/11/12 04:25:13;;;;;;;3.40;3.10;;;15.90;64.40;;;;;;4974743;28;20456;-77
2023/11/12 04:27:41;;;;;;;3.87;3.50;;;15.90;64.10;;;;;;4974825;28;20538;-76
2023/11/12 04:30:10;;;;;;;3.70;3.40;;;15.90;64.20;;;;;;4974266;28;20484;-77
2023/11/12 04:32:39;;;;;;;5.17;3.17;;;15.90;64.30;;;;;;4974491;28;20446;-77
2023/11/12 04:35:10;;;;;;;3.80;3.50;;;15.90;64.20;;;;;;4971957;28;20526;-77
2023/11/12 04:37:38;;;;;;;3.80;3.50;;;15.90;63.90;;;;;;4965532;28;20458;-76
2023/11/12 04:40:09;;;;;;;3.40;3.10;;;15.80;64.40;;;;;;4970035;28;20535;-77
2023/11/12 04:42:39;;;;;;;6.23;3.80;;;15.90;64.20;;;;;;4973747;28;20497;-79
2023/11/12 04:45:08;;;;;;;7.50;3.40;;;15.90;64.10;;;;;;4967255;28;20443;-77
2023/11/12 04:47:36;;;;;;;2.80;2.60;;;15.80;64.10;;;;;;4973718;28;20537;-77
2023/11/12 04:50:05;;;;;;;3.70;3.40;;;15.80;63.90;;;;;;4973798;28;20549;-78
2023/11/12 04:52:33;;;;;;;2.77;2.57;;;15.80;63.90;;;;;;4974416;28;20451;-77
2023/11/12 04:55:01;;;;;;;3.87;3.47;;;15.80;64.00;;;;;;4973795;28;20513;-78
2023/11/12 04:57:29;;;;;;;3.50;3.20;;;15.80;63.90;;;;;;4974647;28;20438;-78
2023/11/12 05:00:00;;;;;;;3.50;3.20;;;15.80;64.20;;;;;;4973906;28;20478;-76
2023/11/12 05:02:27;;;;;;;4.00;3.50;;;15.80;64.00;;;;;;4973599;28;20561;-77
2023/11/12 05:04:56;;;;;;;3.70;3.40;;;15.80;63.80;;;;;;4974402;28;20450;-77
2023/11/12 05:07:24;;;;;;;4.07;3.67;;;15.80;64.00;;;;;;4973760;28;20477;-78
2023/11/12 05:09:52;;;;;;;3.93;3.63;;;15.80;64.10;;;;;;4974116;28;20567;-78
2023/11/12 05:12:21;;;;;;;3.30;3.00;;;15.80;63.90;;;;;;4974005;28;20454;-77
2023/11/12 05:14:49;;;;;;;3.93;3.53;;;15.80;63.70;;;;;;4973842;28;20445;-78
2023/11/12 05:17:18;;;;;;;4.03;3.60;;;15.80;64.00;;;;;;4974255;28;20450;-77
2023/11/12 05:19:48;;;;;;;3.60;3.30;;;15.80;64.00;;;;;;4973781;28;20478;-78
2023/11/12 05:22:17;;;;;;;8.90;3.90;;;15.80;64.20;;;;;;4973193;28;20829;-78
2023/11/12 05:24:51;;;;;;;4.00;3.60;;;15.80;64.20;;;;;;4973705;28;20509;-78
2023/11/12 05:27:19;;;;;;;4.07;3.53;;;15.80;64.00;;;;;;4973292;28;20438;-77
2023/11/12 05:29:47;;;;;;;4.17;3.87;;;15.80;64.00;;;;;;4972993;28;20550;-77
2023/11/12 05:32:15;;;;;;;2.97;2.77;;;15.80;64.00;;;;;;4972994;28;20450;-77
2023/11/12 05:34:45;;;;;;;4.10;3.70;;;15.80;64.20;;;;;;4973189;28;20482;-77
2023/11/12 05:37:13;;;;;;;5.37;4.00;;;15.80;65.00;;;;;;4973597;28;20474;-78
2023/11/12 05:39:42;;;;;;;3.73;3.40;;;15.80;64.00;;;;;;4973925;28;20474;-78
2023/11/12 05:42:12;;;;;;;4.90;4.17;;;15.80;64.20;;;;;;4972955;28;20450;-78
2023/11/12 05:44:41;;;;;;;3.47;3.17;;;15.80;64.30;;;;;;4973182;28;20453;-78
2023/11/12 05:47:09;;;;;;;4.70;4.30;;;15.80;64.30;;;;;;4973565;28;20446;-78
2023/11/12 05:49:38;;;;;;;4.07;3.70;;;15.80;64.30;;;;;;4973031;28;20498;-79
2023/11/12 05:52:08;;;;;;;4.13;3.77;;;15.80;64.30;;;;;;4974044;28;20513;-79
2023/11/12 05:54:36;;;;;;;4.17;3.73;;;15.80;64.20;;;;;;4974867;28;20458;-79
2023/11/12 05:57:05;;;;;;;3.93;3.53;;;15.80;64.60;;;;;;4974778;28;20454;-79
2023/11/12 05:59:34;;;;;;;5.37;4.00;;;15.80;64.40;;;;;;4973879;28;20521;-78
2023/11/12 06:02:02;;;;;;;4.23;3.80;;;15.80;64.50;;;;;;4980783;28;20450;-82
2023/11/12 06:04:30;;;;;;;4.43;4.03;;;15.80;64.50;;;;;;4966436;28;20954;-82
2023/11/12 06:06:58;;;;;;;4.37;4.07;;;15.80;64.40;;;;;;4988972;28;20946;-82
2023/11/12 06:09:28;;;;;;;4.70;3.90;;;15.80;64.40;;;;;;4979948;28;20450;-82
2023/11/12 06:11:57;;;;;;;5.53;4.00;;;15.80;64.40;;;;;;4983170;28;20434;-82
2023/11/12 06:14:25;;;;;;;4.27;3.87;;;15.80;64.40;;;;;;4989488;28;20468;-83
2023/11/12 06:16:52;;;;;;;4.03;3.60;;;15.90;64.20;;;;;;4982969;28;20437;-83
2023/11/12 06:19:21;;;;;;;4.50;4.10;;;15.80;64.60;;;;;;4976918;28;20482;-82
2023/11/12 06:21:49;;;;;;;4.97;4.10;;;15.80;64.60;;;;;;4982817;28;20486;-81
2023/11/12 06:24:16;;;;;;;4.37;3.97;;;15.80;64.80;;;;;;4984877;28;20444;-82
2023/11/12 06:26:46;;;;;;;3.73;3.43;;;15.90;64.80;;;;;;4982958;28;20453;-83
2023/11/12 06:29:14;;;;;;;3.83;3.53;;;15.90;64.70;;;;;;4982338;28;20485;-82
2023/11/12 06:31:43;;;;;;;4.30;3.90;;;15.90;64.60;;;;;;4982908;28;20445;-81
2023/11/12 06:34:11;;;;;;;4.07;3.77;;;15.90;64.50;;;;;;4983451;28;20450;-82
2023/11/12 06:36:40;;;;;;;4.00;3.70;;;15.80;64.90;;;;;;4983999;28;20438;-82
2023/11/12 06:39:13;;;;;;;5.00;4.30;;;15.90;65.00;;;;;;4983572;28;20466;-82
2023/11/12 06:41:41;;;;;;;4.10;3.70;;;15.80;64.70;;;;;;4982340;28;20474;-82
2023/11/12 06:44:11;;;;;;;4.43;3.93;;;15.80;64.80;;;;;;4982049;28;20449;-82
2023/11/12 06:46:45;;;;;;;4.37;3.97;;;15.90;64.90;;;;;;4982737;28;20456;-82
2023/11/12 06:49:14;;;;;;;4.63;4.23;;;15.90;64.80;;;;;;4982957;28;20474;-82
2023/11/12 06:51:45;;;;;;;4.67;4.27;;;15.90;64.80;;;;;;4983203;28;20434;-82
2023/11/12 06:54:15;;;;;;;5.00;3.80;;;15.90;65.00;;;;;;4967308;28;20477;-81
2023/11/12 06:56:43;;;;;;;4.73;4.33;;;15.90;64.60;;;;;;4985135;28;20462;-81
2023/11/12 06:59:12;;;;;;;4.47;4.07;;;15.90;65.10;;;;;;4984769;28;20462;-81
2023/11/12 07:01:41;;;;;;;4.80;4.10;;;15.90;64.80;;;;;;4984352;28;20501;-81
2023/11/12 07:04:10;;;;;;;4.20;3.70;;;15.90;65.10;;;;;;4984203;28;20456;-82
2023/11/12 07:06:39;;;;;;;4.80;4.40;;;16.00;65.20;;;;;;4984431;28;20810;-81
2023/11/12 07:09:08;;;;;;;4.37;4.07;;;15.90;65.00;;;;;;4984324;28;20532;-81
2023/11/12 07:11:36;;;;;;;4.93;4.00;;;15.90;65.10;;;;;;4985618;28;20473;-80
2023/11/12 07:14:04;;;;;;;4.20;3.80;;;16.00;65.20;;;;;;4983058;28;20450;-81
2023/11/12 07:16:35;;;;;;;4.27;3.87;;;16.00;65.20;;;;;;4985737;28;20473;-81
2023/11/12 07:19:04;;;;;;;6.30;3.53;;;16.00;65.30;;;;;;4986243;28;20476;-81
2023/11/12 07:21:34;;;;;;;5.30;4.30;;;16.00;65.20;;;;;;4986017;28;20474;-81
2023/11/12 07:24:02;;;;;;;3.97;3.67;;;16.00;65.20;;;;;;4987061;28;20537;-81
2023/11/12 07:26:30;;;;;;;3.93;3.60;;;16.00;65.30;;;;;;4983089;28;20450;-82
2023/11/12 07:28:59;;;;;;;4.03;3.73;;;16.10;65.60;;;;;;4984344;28;20462;-80
2023/11/12 07:31:27;;;;;;;4.10;3.70;;;16.10;65.40;;;;;;4985768;28;20437;-80
2023/11/12 07:33:57;;;;;;;4.30;3.90;;;16.10;65.30;;;;;;4986409;28;20458;-79
2023/11/12 07:36:25;;;;;;;4.07;3.70;;;16.10;65.50;;;;;;4988201;28;20479;-81
2023/11/12 07:38:53;;;;;;;3.70;3.40;;;16.10;65.30;;;;;;4987250;28;20561;-81
2023/11/12 07:41:23;;;;;;;4.73;4.33;;;16.20;65.40;;;;;;4989398;28;20540;-80
2023/11/12 07:43:51;;;;;;;5.33;4.07;;;16.20;65.50;;;;;;4989692;28;20465;-81
2023/11/12 07:46:19;;;;;;;5.60;4.50;;;16.20;65.50;;;;;;4989727;28;20446;-82
2023/11/12 07:48:49;;;;;;;4.70;4.30;;;16.20;65.50;;;;;;4988784;28;20450;-81
2023/11/12 07:51:19;;;;;;;5.27;4.77;;;16.20;65.70;;;;;;4987286;28;20442;-80
2023/11/12 07:53:48;;;;;;;6.50;4.80;;;16.20;65.60;;;;;;4984930;28;20457;-80
2023/11/12 07:56:16;;;;;;;5.37;4.83;;;16.20;65.70;;;;;;4983980;28;20500;-80
2023/11/12 07:58:46;;;;;;;4.90;4.37;;;16.30;65.90;;;;;;4983728;28;20498;-80
2023/11/12 08:01:15;;;;;;;6.43;5.20;;;16.20;65.70;;;;;;4984856;28;20474;-81
2023/11/12 08:03:44;;;;;;;4.73;4.33;;;16.30;65.90;;;;;;4983618;28;20446;-79
2023/11/12 08:06:13;;;;;;;5.43;4.83;;;16.30;66.00;;;;;;4985340;28;20462;-80
2023/11/12 08:08:43;;;;;;;4.90;4.40;;;16.30;66.00;;;;;;4986318;28;20517;-81
2023/11/12 08:11:11;;;;;;;4.97;4.47;;;16.30;65.90;;;;;;4987448;28;20439;-81
2023/11/12 08:13:39;;;;;;;5.13;4.60;;;16.30;65.80;;;;;;4987050;28;20477;-81
2023/11/12 08:16:09;;;;;;;8.63;5.10;;;16.40;66.00;;;;;;4986559;28;20442;-81
2023/11/12 08:18:39;;;;;;;5.40;4.33;;;16.40;66.10;;;;;;4985455;28;20447;-83
2023/11/12 08:21:07;;;;;;;5.70;4.80;;;16.40;66.10;;;;;;4984801;28;20478;-82
2023/11/12 08:23:35;;;;;;;5.20;4.60;;;16.40;66.30;;;;;;4986792;28;20479;-82
2023/11/12 08:26:05;;;;;;;6.37;5.03;;;16.40;66.20;;;;;;4987624;28;20466;-83
2023/11/12 08:28:33;;;;;;;6.20;5.00;;;16.40;66.20;;;;;;4983729;28;20477;-82
2023/11/12 08:31:05;;;;;;;7.77;5.17;;;16.50;66.30;;;;;;4986253;28;20445;-82
2023/11/12 08:33:36;;;;;;;5.83;5.20;;;16.50;66.10;;;;;;4969684;28;20454;-81
2023/11/12 08:36:10;;;;;;;4.97;4.50;;;16.50;66.00;;;;;;4987595;28;20446;-82
2023/11/12 08:38:42;;;;;;;5.23;4.73;;;16.50;66.30;;;;;;4987869;28;20473;-81
2023/11/12 08:41:13;;;;;;;5.27;4.77;;;16.50;66.20;;;;;;4987849;28;20442;-82
2023/11/12 08:43:44;;;;;;;7.20;5.63;;;16.50;66.00;;;;;;4987892;28;20524;-81
2023/11/12 08:46:15;;;;;;;5.90;5.30;;;16.60;66.20;;;;;;4989995;28;20443;-83
2023/11/12 08:48:43;;;;;;;6.83;5.83;;;16.60;66.20;;;;;;4989862;28;20469;-83
2023/11/12 08:51:12;;;;;;;7.20;6.00;;;16.60;66.10;;;;;;4990662;28;20427;-84
2023/11/12 08:53:40;;;;;;;5.53;5.03;;;16.60;66.50;;;;;;4988324;28;20713;-81
2023/11/12 08:56:08;;;;;;;7.10;5.87;;;16.60;66.40;;;;;;4988643;28;20469;-81
2023/11/12 08:58:38;;;;;;;6.43;5.30;;;16.70;66.30;;;;;;4987399;28;20465;-81
2023/11/12 09:01:08;;;;;;;6.67;5.80;;;16.70;66.30;;;;;;4986965;28;20442;-81
2023/11/12 09:03:38;;;;;;;6.67;5.90;;;16.80;66.10;;;;;;4986558;28;20456;-81
2023/11/12 09:06:07;;;;;;;5.73;5.13;;;16.80;66.00;;;;;;4987353;28;20509;-81
2023/11/12 09:08:35;;;;;;;7.07;6.00;;;16.70;66.00;;;;;;4987759;28;20458;-80
2023/11/12 09:11:03;;;;;;;6.67;5.37;;;16.80;66.00;;;;;;4988028;28;20453;-81
2023/11/12 09:13:31;;;;;;;6.97;5.73;;;16.70;66.30;;;;;;4988547;28;20457;-80
2023/11/12 09:16:01;;;;;;;7.10;6.10;;;16.80;66.30;;;;;;4988875;28;20473;-81
2023/11/12 09:18:30;;;;;;;7.00;5.77;;;16.90;66.30;;;;;;4990044;28;20522;-81
2023/11/12 09:20:58;;;;;;;7.87;5.77;;;16.90;66.20;;;;;;4989868;28;20469;-82
2023/11/12 09:23:26;;;;;;;7.23;5.93;;;16.80;66.20;;;;;;4989385;28;20474;-81
2023/11/12 09:25:55;;;;;;;7.27;5.90;;;16.90;66.10;;;;;;4989170;28;20450;-83
2023/11/12 09:28:24;;;;;;;6.13;5.53;;;16.90;66.20;;;;;;4987221;28;20482;-75
2023/11/12 09:30:52;;;;;;;9.10;6.37;;;16.90;66.30;;;;;;4973556;28;20446;-77
2023/11/12 09:33:29;;;;;;;7.03;5.80;;;16.90;66.30;;;;;;4973911;28;20469;-77
2023/11/12 09:35:56;;;;;;;7.70;6.53;;;16.90;66.30;;;;;;4973362;28;20438;-77
2023/11/12 09:38:25;;;;;;;6.87;6.00;;;17.00;66.30;;;;;;4973994;28;20525;-79
2023/11/12 09:40:53;;;;;;;13.53;6.60;;;17.00;66.40;;;;;;4973030;28;20454;-78
2023/11/12 09:43:24;;;;;;;7.40;6.07;;;17.00;66.30;;;;;;4973551;28;20569;-77
2023/11/12 09:45:55;;;;;;;6.50;5.80;;;17.00;66.50;;;;;;4973446;28;20446;-77
2023/11/12 09:48:31;;;;;;;7.60;6.77;;;17.10;66.60;;;;;;4973063;28;20469;-78
2023/11/12 09:51:00;;;;;;;6.53;5.73;;;17.10;66.40;;;;;;4972900;28;20538;-78
2023/11/12 09:53:28;;;;;;;7.80;6.97;;;17.20;66.40;;;;;;4973887;28;20442;-80
2023/11/12 09:56:07;;;;;;;8.77;7.07;;;17.30;66.20;;;;;;4974394;28;20489;-80
2023/11/12 09:58:36;;;;;;;9.20;6.60;;;17.30;66.10;;;;;;4974174;28;20532;-78
2023/11/12 10:01:05;;;;;;;8.37;6.83;;;17.40;66.20;;;;;;4972672;28;20533;-79
2023/11/12 10:03:35;;;;;;;8.37;6.80;;;17.50;66.40;;;;;;4972615;28;20469;-77
2023/11/12 10:06:05;;;;;;;8.70;6.80;;;17.60;66.00;;;;;;4972770;28;20946;-77
2023/11/12 10:08:34;;;;;;;8.20;6.90;;;17.60;65.80;;;;;;4972853;28;20462;-76
2023/11/12 10:11:14;;;;;;;7.70;6.40;;;17.60;65.80;;;;;;4972846;28;20454;-77
2023/11/12 10:13:42;;;;;;;8.00;6.70;;;17.60;65.90;;;;;;4972567;28;20551;-76
2023/11/12 10:16:26;;;;;;;7.13;6.43;;;17.60;65.90;;;;;;4972284;28;20446;-79
2023/11/12 10:19:08;;;;;;;7.60;6.80;;;17.70;66.00;;;;;;4971120;28;20640;-77
2023/11/12 10:21:36;;;;;;;8.60;6.90;;;17.80;65.90;;;;;;4967549;28;20469;-77
2023/11/12 10:24:05;;;;;;;8.17;7.37;;;17.80;65.80;;;;;;4957473;28;20523;-76
2023/11/12 10:26:33;;;;;;;7.80;6.57;;;17.90;65.90;;;;;;4966315;28;20514;-78
2023/11/12 10:29:02;;;;;;;8.80;7.40;;;18.00;66.00;;;;;;4958854;28;20508;-78
2023/11/12 10:31:39;;;;;;;7.90;6.97;;;18.10;66.00;;;;;;4978890;28;20474;-79
2023/11/12 10:34:09;;;;;;;8.27;6.80;;;18.20;65.80;;;;;;4964653;28;20442;-80
2023/11/12 10:36:37;;;;;;;7.53;6.73;;;18.20;65.70;;;;;;4972908;28;20525;-77
2023/11/12 10:39:09;;;;;;;8.13;6.67;;;18.30;65.70;;;;;;4972341;28;20462;-77
2023/11/12 10:41:39;;;;;;;7.70;6.90;;;18.30;65.70;;;;;;4972420;28;20446;-77
2023/11/12 10:44:08;;;;;;;7.53;6.27;;;18.40;65.70;;;;;;4972092;28;20508;-77
2023/11/12 10:46:38;;;;;;;7.00;6.20;;;18.50;65.60;;;;;;4972255;28;20446;-75
2023/11/12 10:49:09;;;;;;;6.80;6.10;;;18.50;65.70;;;;;;4972389;28;20470;-78
2023/11/12 10:51:42;;;;;;;6.80;6.20;;;18.60;65.50;;;;;;4972775;28;20450;-78
2023/11/12 10:54:11;;;;;;;7.13;6.43;;;18.80;66.00;;;;;;4976920;28;20452;-78
2023/11/12 10:56:42;;;;;;;7.43;6.47;;;19.00;66.00;;;;;;4976265;28;20442;-79
2023/11/12 10:59:11;;;;;;;9.40;6.97;;;19.20;65.30;;;;;;4975967;28;20540;-78
2023/11/12 11:01:40;;;;;;;6.70;6.10;;;19.20;65.30;;;;;;4976263;28;20453;-79
2023/11/12 11:04:08;;;;;;;7.53;6.77;;;19.30;65.10;;;;;;4975740;28;20477;-75
2023/11/12 11:06:37;;;;;;;7.23;6.53;;;19.30;64.80;;;;;;4976251;28;20445;-77
2023/11/12 11:09:08;;;;;;;7.53;6.77;;;19.40;64.70;;;;;;4975647;28;20473;-77
2023/11/12 11:11:36;;;;;;;6.90;6.00;;;19.40;64.70;;;;;;4975884;28;20513;-75
2023/11/12 11:14:27;;;;;;;6.90;6.20;;;19.40;64.70;;;;;;4975785;28;20442;-78
2023/11/12 11:16:55;;;;;;;8.20;6.50;;;19.40;64.70;;;;;;4970818;28;20466;-77
2023/11/12 11:19:53;;;;;;;7.00;6.30;;;19.30;64.60;;;;;;4975441;28;20473;-78
2023/11/12 11:22:26;;;;;;;8.20;6.40;;;19.40;65.00;;;;;;4966675;28;20474;-76
2023/11/12 11:24:56;;;;;;;8.50;6.10;;;19.50;64.90;;;;;;4975577;28;20514;-78
2023/11/12 11:27:25;;;;;;;7.70;6.23;;;19.50;64.60;;;;;;4976221;28;20453;-78
2023/11/12 11:30:08;;;;;;;6.63;6.03;;;19.50;64.70;;;;;;4976182;28;20509;-78
2023/11/12 11:32:37;;;;;;;6.63;6.00;;;19.50;65.60;;;;;;4975898;28;20501;-79
2023/11/12 11:35:16;;;;;;;6.57;5.93;;;19.50;65.00;;;;;;4975542;28;20451;-77
2023/11/12 11:38:11;;;;;;;6.37;5.67;;;19.50;65.10;;;;;;4975558;28;20542;-77
2023/11/12 11:40:42;;;;;;;6.73;6.03;;;19.60;65.70;;;;;;4975242;28;20553;-77
2023/11/12 11:43:31;;;;;;;6.50;5.80;;;19.60;65.00;;;;;;4975136;28;20549;-77
2023/11/12 11:46:10;;;;;;;7.77;5.50;;;19.50;65.30;;;;;;4975686;28;20513;-77
2023/11/12 11:49:16;;;;;;;6.87;6.00;;;19.40;65.10;;;;;;4975142;28;20565;-77
2023/11/12 11:51:51;;;;;;;6.73;5.40;;;19.40;65.70;;;;;;4975148;28;20454;-77
2023/11/12 11:54:20;;;;;;;6.00;5.40;;;19.40;65.50;;;;;;4975371;28;20525;-77
2023/11/12 11:56:51;;;;;;;7.23;5.93;;;19.40;65.50;;;;;;4975195;28;20451;-76
2023/11/12 11:59:19;;;;;;;6.63;6.00;;;19.60;66.10;;;;;;4975450;28;20480;-77
2023/11/12 12:01:47;;;;;;;6.30;5.70;;;19.60;65.60;;;;;;4975124;28;20497;-76
2023/11/12 12:04:16;;;;;;;6.13;5.40;;;19.70;65.40;;;;;;4974389;28;20841;-77
2023/11/12 12:06:45;;;;;;;6.63;6.00;;;19.60;65.00;;;;;;4976027;28;20446;-76
2023/11/12 12:09:18;;;;;;;6.10;5.60;;;19.60;65.20;;;;;;4974982;28;20462;-78
2023/11/12 12:11:47;;;;;;;6.60;5.90;;;19.60;65.30;;;;;;4975173;28;20454;-77
2023/11/12 12:14:17;;;;;;;8.80;6.57;;;19.80;65.90;;;;;;4975441;28;20446;-78
2023/11/12 12:16:45;;;;;;;7.17;6.47;;;20.00;66.10;;;;;;4975016;28;20474;-77
2023/11/12 12:19:17;;;;;;;6.57;5.90;;;20.40;66.70;;;;;;4974867;28;20557;-80
2023/11/12 12:21:49;;;;;;;6.97;5.90;;;20.80;65.50;;;;;;4974644;28;20504;-78
2023/11/12 12:24:18;;;;;;;5.90;5.40;;;21.00;64.70;;;;;;4974763;28;20472;-77
2023/11/12 12:26:46;;;;;;;6.60;6.00;;;21.00;63.70;;;;;;4974878;28;20454;-79
2023/11/12 12:29:17;;;;;;;6.60;6.00;;;21.00;63.20;;;;;;4974358;28;20478;-77
2023/11/12 12:31:45;;;;;;;6.23;5.63;;;21.00;63.70;;;;;;4974804;28;20454;-77
2023/11/12 12:34:16;;;;;;;8.80;6.40;;;21.00;63.10;;;;;;4974781;28;20469;-77
2023/11/12 12:37:02;;;;;;;8.00;6.40;;;21.00;63.40;;;;;;4974825;28;20452;-76
2023/11/12 12:39:52;;;;;;;7.43;6.10;;;21.20;64.30;;;;;;4974555;28;20477;-77
2023/11/12 12:42:26;;;;;;;7.03;6.33;;;21.30;64.20;;;;;;4974677;28;20442;-80
2023/11/12 12:44:58;;;;;;;6.10;5.50;;;21.60;64.20;;;;;;4974348;28;20478;-78
2023/11/12 12:47:30;;;;;;;6.83;6.23;;;22.00;63.60;;;;;;4974699;28;20463;-78
2023/11/12 12:49:59;;;;;;;6.40;5.80;;;22.30;63.20;;;;;;4974244;28;20470;-79
2023/11/12 12:52:27;;;;;;;6.30;5.70;;;22.60;63.00;;;;;;4974489;28;20446;-78
2023/11/12 12:55:05;;;;;;;7.20;6.50;;;22.90;62.10;;;;;;4976039;28;20533;-78
2023/11/12 12:57:35;;;;;;;6.30;5.70;;;23.10;61.80;;;;;;4974787;28;20458;-77
2023/11/12 13:00:10;;;;;;;6.83;6.13;;;22.90;60.80;;;;;;4974228;28;20452;-77
2023/11/12 13:02:42;;;;;;;6.20;5.60;;;22.70;60.70;;;;;;4974213;28;20428;-78